sensor_id;sensor_type;location;lat;lon;timestamp;pressure;altitude;pressure_sealevel;temperature;humidity
42003;BME280;27693;50.506;30.832;2023-01-29T00:00:08;100008.03;;;-2.41;81.87
42003;BME280;27693;50.506;30.832;2023-01-29T00:01:16;100007.01;;;-2.55;81.12
42003;BME280;27693;50.506;30.832;2023-01-29T00:02:20;100002.59;;;-2.68;81.11
42003;BME280;27693;50.506;30.832;2023-01-29T00:03:22;100000.91;;;-2.66;81.16
42003;BME280;27693;50.506;30.832;2023-01-29T00:04:25;100002.63;;;-2.65;81.14
42003;BME280;27693;50.506;30.832;2023-01-29T00:05:27;100002.59;;;-2.68;81.10
42003;BME280;27693;50.506;30.832;2023-01-29T00:06:30;100006.89;;;-2.63;81.14
42003;BME280;27693;50.506;30.832;2023-01-29T00:07:32;100006.00;;;-2.66;81.05
42003;BME280;27693;50.506;30.832;2023-01-29T00:08:35;100009.30;;;-2.74;81.14
42003;BME280;27693;50.506;30.832;2023-01-29T00:09:37;100004.03;;;-2.89;81.34
42003;BME280;27693;50.506;30.832;2023-01-29T00:10:39;100017.45;;;-2.99;81.71
42003;BME280;27693;50.506;30.832;2023-01-29T00:11:42;100013.08;;;-3.10;82.28
42003;BME280;27693;50.506;30.832;2023-01-29T00:12:45;100017.28;;;-3.12;82.50
42003;BME280;27693;50.506;30.832;2023-01-29T00:13:47;100021.64;;;-3.03;82.67
42003;BME280;27693;50.506;30.832;2023-01-29T00:14:51;100019.08;;;-3.05;82.68
42003;BME280;27693;50.506;30.832;2023-01-29T00:15:55;100024.17;;;-3.05;82.89
42003;BME280;27693;50.506;30.832;2023-01-29T00:16:58;100032.70;;;-3.01;82.83
42003;BME280;27693;50.506;30.832;2023-01-29T00:18:01;100026.70;;;-3.06;82.79
42003;BME280;27693;50.506;30.832;2023-01-29T00:19:03;100027.55;;;-3.06;82.90
42003;BME280;27693;50.506;30.832;2023-01-29T00:20:07;100014.08;;;-2.98;82.86
42003;BME280;27693;50.506;30.832;2023-01-29T00:21:13;100020.09;;;-2.92;82.89
42003;BME280;27693;50.506;30.832;2023-01-29T00:22:16;100016.72;;;-2.91;82.60
42003;BME280;27693;50.506;30.832;2023-01-29T00:23:19;100015.06;;;-2.87;82.57
42003;BME280;27693;50.506;30.832;2023-01-29T00:24:21;100009.22;;;-2.80;82.64
42003;BME280;27693;50.506;30.832;2023-01-29T00:25:24;100018.55;;;-2.82;82.37
42003;BME280;27693;50.506;30.832;2023-01-29T00:26:26;100021.10;;;-2.82;82.26
42003;BME280;27693;50.506;30.832;2023-01-29T00:27:28;100019.33;;;-2.86;82.51
42003;BME280;27693;50.506;30.832;2023-01-29T00:28:30;100019.38;;;-2.83;82.99
42003;BME280;27693;50.506;30.832;2023-01-29T00:29:33;100024.31;;;-2.95;83.27
42003;BME280;27693;50.506;30.832;2023-01-29T00:30:36;100018.94;;;-3.14;83.51
42003;BME280;27693;50.506;30.832;2023-01-29T00:31:38;100025.80;;;-3.10;84.33
42003;BME280;27693;50.506;30.832;2023-01-29T00:32:41;100022.47;;;-3.04;84.48
42003;BME280;27693;50.506;30.832;2023-01-29T00:33:44;100014.02;;;-3.01;84.74
42003;BME280;27693;50.506;30.832;2023-01-29T00:34:46;100018.42;;;-2.91;85.18
42003;BME280;27693;50.506;30.832;2023-01-29T00:35:50;100013.34;;;-2.88;85.37
42003;BME280;27693;50.506;30.832;2023-01-29T00:36:52;100015.05;;;-2.89;85.36
42003;BME280;27693;50.506;30.832;2023-01-29T00:37:58;100016.80;;;-2.84;85.48
42003;BME280;27693;50.506;30.832;2023-01-29T00:39:01;100027.56;;;-3.04;84.78
42003;BME280;27693;50.506;30.832;2023-01-29T00:40:05;100027.69;;;-2.96;85.01
42003;BME280;27693;50.506;30.832;2023-01-29T00:41:11;100024.34;;;-2.92;85.26
42003;BME280;27693;50.506;30.832;2023-01-29T00:42:32;100031.23;;;-2.85;85.65
42003;BME280;27693;50.506;30.832;2023-01-29T00:43:54;100025.30;;;-2.85;85.55
42003;BME280;27693;50.506;30.832;2023-01-29T00:45:16;100027.80;;;-2.87;85.29
42003;BME280;27693;50.506;30.832;2023-01-29T00:46:19;100024.42;;;-2.86;85.72
42003;BME280;27693;50.506;30.832;2023-01-29T00:47:22;100034.67;;;-2.81;85.81
42003;BME280;27693;50.506;30.832;2023-01-29T00:48:36;100029.67;;;-2.74;86.02
42003;BME280;27693;50.506;30.832;2023-01-29T00:49:38;100028.96;;;-2.65;86.05
42003;BME280;27693;50.506;30.832;2023-01-29T00:50:40;100024.84;;;-2.55;85.68
42003;BME280;27693;50.506;30.832;2023-01-29T00:51:43;100024.91;;;-2.49;85.55
42003;BME280;27693;50.506;30.832;2023-01-29T00:52:48;100031.80;;;-2.42;85.44
42003;BME280;27693;50.506;30.832;2023-01-29T00:53:52;100023.00;;;-2.65;84.44
42003;BME280;27693;50.506;30.832;2023-01-29T00:55:00;100024.77;;;-2.61;84.81
42003;BME280;27693;50.506;30.832;2023-01-29T00:56:04;100017.98;;;-2.59;85.23
42003;BME280;27693;50.506;30.832;2023-01-29T00:57:06;100014.67;;;-2.52;85.02
42003;BME280;27693;50.506;30.832;2023-01-29T00:58:08;100019.83;;;-2.47;84.88
42003;BME280;27693;50.506;30.832;2023-01-29T00:59:10;100014.79;;;-2.43;85.11
42003;BME280;27693;50.506;30.832;2023-01-29T01:00:16;100023.13;;;-2.56;84.18
42003;BME280;27693;50.506;30.832;2023-01-29T01:01:21;100014.59;;;-2.58;84.11
42003;BME280;27693;50.506;30.832;2023-01-29T01:02:25;100015.50;;;-2.53;84.81
42003;BME280;27693;50.506;30.832;2023-01-29T01:03:48;100016.31;;;-2.57;84.34
42003;BME280;27693;50.506;30.832;2023-01-29T01:04:50;100012.94;;;-2.56;84.81
42003;BME280;27693;50.506;30.832;2023-01-29T01:06:08;100016.37;;;-2.52;85.03
42003;BME280;27693;50.506;30.832;2023-01-29T01:07:07;100015.55;;;-2.50;85.02
42003;BME280;27693;50.506;30.832;2023-01-29T01:08:10;100012.95;;;-2.53;84.72
42003;BME280;27693;50.506;30.832;2023-01-29T01:09:22;100012.25;;;-2.41;85.04
42003;BME280;27693;50.506;30.832;2023-01-29T01:10:43;100011.34;;;-2.48;85.14
42003;BME280;27693;50.506;30.832;2023-01-29T01:11:45;100008.05;;;-2.37;84.49
42003;BME280;27693;50.506;30.832;2023-01-29T01:12:56;100002.17;;;-2.32;84.48
42003;BME280;27693;50.506;30.832;2023-01-29T01:13:59;100006.40;;;-2.32;84.21
42003;BME280;27693;50.506;30.832;2023-01-29T01:15:03;100008.18;;;-2.25;83.89
42003;BME280;27693;50.506;30.832;2023-01-29T01:16:11;100008.18;;;-2.25;84.02
42003;BME280;27693;50.506;30.832;2023-01-29T01:17:14;100006.58;;;-2.17;83.31
42003;BME280;27693;50.506;30.832;2023-01-29T01:18:17;100013.41;;;-2.13;82.67
42003;BME280;27693;50.506;30.832;2023-01-29T01:19:21;100023.70;;;-2.06;81.93
42003;BME280;27693;50.506;30.832;2023-01-29T01:20:25;100016.11;;;-1.99;81.42
42003;BME280;27693;50.506;30.832;2023-01-29T01:21:28;100020.43;;;-1.93;81.03
42003;BME280;27693;50.506;30.832;2023-01-29T01:22:31;100022.16;;;-1.90;81.57
42003;BME280;27693;50.506;30.832;2023-01-29T01:23:33;100024.61;;;-1.98;81.25
42003;BME280;27693;50.506;30.832;2023-01-29T01:24:36;100018.72;;;-1.94;80.63
42003;BME280;27693;50.506;30.832;2023-01-29T01:25:39;100023.04;;;-1.87;80.04
42003;BME280;27693;50.506;30.832;2023-01-29T01:26:42;100021.38;;;-1.83;79.75
42003;BME280;27693;50.506;30.832;2023-01-29T01:27:45;100027.37;;;-1.78;79.56
42003;BME280;27693;50.506;30.832;2023-01-29T01:28:48;100021.42;;;-1.77;79.82
42003;BME280;27693;50.506;30.832;2023-01-29T01:29:50;100023.98;;;-1.75;79.88
42003;BME280;27693;50.506;30.832;2023-01-29T01:30:53;100020.61;;;-1.71;79.31
42003;BME280;27693;50.506;30.832;2023-01-29T01:31:56;100022.38;;;-1.66;78.90
42003;BME280;27693;50.506;30.832;2023-01-29T01:32:58;100020.69;;;-1.65;78.72
42003;BME280;27693;50.506;30.832;2023-01-29T01:34:00;100021.53;;;-1.66;78.78
42003;BME280;27693;50.506;30.832;2023-01-29T01:35:03;100015.55;;;-1.68;78.96
42003;BME280;27693;50.506;30.832;2023-01-29T01:36:07;100018.98;;;-1.66;78.60
42003;BME280;27693;50.506;30.832;2023-01-29T01:37:14;100013.00;;;-1.67;78.86
42003;BME280;27693;50.506;30.832;2023-01-29T01:38:16;100020.69;;;-1.65;78.68
42003;BME280;27693;50.506;30.832;2023-01-29T01:39:18;100016.44;;;-1.63;78.45
42003;BME280;27693;50.506;30.832;2023-01-29T01:40:22;100019.02;;;-1.62;78.09
42003;BME280;27693;50.506;30.832;2023-01-29T01:41:25;100013.92;;;-1.60;77.88
42003;BME280;27693;50.506;30.832;2023-01-29T01:42:28;100012.26;;;-1.55;77.12
42003;BME280;27693;50.506;30.832;2023-01-29T01:43:57;100019.95;;;-1.52;77.22
42003;BME280;27693;50.506;30.832;2023-01-29T01:45:03;100025.02;;;-1.53;76.92
42003;BME280;27693;50.506;30.832;2023-01-29T01:46:08;100019.08;;;-1.54;77.07
42003;BME280;27693;50.506;30.832;2023-01-29T01:47:11;100016.52;;;-1.54;76.76
42003;BME280;27693;50.506;30.832;2023-01-29T01:48:21;100018.23;;;-1.53;76.06
42003;BME280;27693;50.506;30.832;2023-01-29T01:49:20;100016.57;;;-1.49;76.28
42003;BME280;27693;50.506;30.832;2023-01-29T01:51:37;100020.79;;;-1.53;76.73
42003;BME280;27693;50.506;30.832;2023-01-29T01:52:42;100019.91;;;-1.55;76.90
42003;BME280;27693;50.506;30.832;2023-01-29T01:53:55;100020.75;;;-1.56;77.30
42003;BME280;27693;50.506;30.832;2023-01-29T01:54:54;100016.48;;;-1.57;77.05
42003;BME280;27693;50.506;30.832;2023-01-29T01:56:00;100023.30;;;-1.59;76.78
42003;BME280;27693;50.506;30.832;2023-01-29T01:57:09;100016.52;;;-1.55;76.51
42003;BME280;27693;50.506;30.832;2023-01-29T01:58:17;100022.51;;;-1.52;76.16
42003;BME280;27693;50.506;30.832;2023-01-29T05:26:00;100032.30;;;-4.25;94.12
42003;BME280;27693;50.506;30.832;2023-01-29T05:27:03;100032.45;;;-4.19;93.83
42003;BME280;27693;50.506;30.832;2023-01-29T05:28:24;100032.39;;;-4.21;93.53
42003;BME280;27693;50.506;30.832;2023-01-29T05:29:26;100040.89;;;-4.20;93.64
42003;BME280;27693;50.506;30.832;2023-01-29T05:30:34;100043.53;;;-4.15;93.69
42003;BME280;27693;50.506;30.832;2023-01-29T05:31:36;100041.23;;;-4.02;94.02
42003;BME280;27693;50.506;30.832;2023-01-29T05:32:39;100041.45;;;-3.89;94.04
42003;BME280;27693;50.506;30.832;2023-01-29T05:33:41;100045.84;;;-3.80;93.67
42003;BME280;27693;50.506;30.832;2023-01-29T05:34:43;100044.36;;;-3.69;93.71
42003;BME280;27693;50.506;30.832;2023-01-29T05:35:46;100040.22;;;-3.62;93.19
42003;BME280;27693;50.506;30.832;2023-01-29T05:36:49;100045.41;;;-3.56;92.51
42003;BME280;27693;50.506;30.832;2023-01-29T05:37:51;100047.22;;;-3.49;92.04
42003;BME280;27693;50.506;30.832;2023-01-29T05:38:53;100047.29;;;-3.46;91.45
42003;BME280;27693;50.506;30.832;2023-01-29T05:39:56;100041.91;;;-3.64;90.55
42003;BME280;27693;50.506;30.832;2023-01-29T05:40:58;100036.85;;;-3.61;90.48
42003;BME280;27693;50.506;30.832;2023-01-29T05:42:01;100034.33;;;-3.60;90.34
42003;BME280;27693;50.506;30.832;2023-01-29T05:43:04;100045.41;;;-3.55;90.32
42003;BME280;27693;50.506;30.832;2023-01-29T05:44:09;100045.41;;;-3.56;90.02
42003;BME280;27693;50.506;30.832;2023-01-29T05:45:11;100036.09;;;-3.57;89.94
42003;BME280;27693;50.506;30.832;2023-01-29T05:46:14;100039.59;;;-3.49;89.91
42003;BME280;27693;50.506;30.832;2023-01-29T05:47:19;100044.11;;;-3.32;90.21
42003;BME280;27693;50.506;30.832;2023-01-29T05:48:22;100040.02;;;-3.23;90.33
42003;BME280;27693;50.506;30.832;2023-01-29T05:49:25;100045.95;;;-3.22;89.90
42003;BME280;27693;50.506;30.832;2023-01-29T05:50:27;100041.59;;;-3.29;89.29
42003;BME280;27693;50.506;30.832;2023-01-29T05:51:30;100044.02;;;-3.39;89.21
42003;BME280;27693;50.506;30.832;2023-01-29T05:52:33;100041.48;;;-3.37;89.15
42003;BME280;27693;50.506;30.832;2023-01-29T05:53:35;100044.91;;;-3.37;89.27
42003;BME280;27693;50.506;30.832;2023-01-29T05:54:38;100043.82;;;-3.51;89.29
42003;BME280;27693;50.506;30.832;2023-01-29T05:55:45;100049.56;;;-3.61;89.42
42003;BME280;27693;50.506;30.832;2023-01-29T05:56:48;100044.56;;;-3.57;89.83
42003;BME280;27693;50.506;30.832;2023-01-29T05:57:51;100045.57;;;-3.47;90.15
42003;BME280;27693;50.506;30.832;2023-01-29T05:58:53;100044.02;;;-3.39;90.42
42003;BME280;27693;50.506;30.832;2023-01-29T05:59:57;100049.14;;;-3.35;90.20
42003;BME280;27693;50.506;30.832;2023-01-29T06:01:20;100045.00;;;-3.30;90.13
42003;BME280;27693;50.506;30.832;2023-01-29T06:02:19;100043.41;;;-3.22;90.10
42003;BME280;27693;50.506;30.832;2023-01-29T06:03:22;100042.39;;;-3.33;89.76
42003;BME280;27693;50.506;30.832;2023-01-29T06:04:24;100052.68;;;-3.26;89.85
42003;BME280;27693;50.506;30.832;2023-01-29T06:05:27;100052.47;;;-3.40;89.27
42003;BME280;27693;50.506;30.832;2023-01-29T06:06:31;100049.81;;;-3.47;89.31
42003;BME280;27693;50.506;30.832;2023-01-29T06:07:33;100045.67;;;-3.41;89.63
42003;BME280;27693;50.506;30.832;2023-01-29T06:08:37;100054.17;;;-3.40;89.54
42003;BME280;27693;50.506;30.832;2023-01-29T06:09:39;100056.44;;;-3.57;89.62
42003;BME280;27693;50.506;30.832;2023-01-29T06:10:41;100049.73;;;-3.52;89.76
42003;BME280;27693;50.506;30.832;2023-01-29T06:11:44;100044.63;;;-3.54;89.70
42003;BME280;27693;50.506;30.832;2023-01-29T06:12:46;100053.84;;;-3.59;89.57
42003;BME280;27693;50.506;30.832;2023-01-29T06:13:48;100056.66;;;-3.43;89.80
42003;BME280;27693;50.506;30.832;2023-01-29T06:14:50;100044.02;;;-3.39;90.05
42003;BME280;27693;50.506;30.832;2023-01-29T06:15:52;100056.09;;;-3.25;90.29
42003;BME280;27693;50.506;30.832;2023-01-29T06:16:55;100054.63;;;-3.11;90.42
42003;BME280;27693;50.506;30.832;2023-01-29T06:17:57;100050.52;;;-3.02;90.51
42003;BME280;27693;50.506;30.832;2023-01-29T06:18:59;100050.55;;;-2.98;90.13
42003;BME280;27693;50.506;30.832;2023-01-29T06:20:04;100051.59;;;-2.86;90.11
42003;BME280;27693;50.506;30.832;2023-01-29T06:21:10;100049.56;;;-3.08;88.91
42003;BME280;27693;50.506;30.832;2023-01-29T06:22:12;100044.55;;;-3.03;89.12
42003;BME280;27693;50.506;30.832;2023-01-29T06:23:15;100046.34;;;-2.97;88.87
42003;BME280;27693;50.506;30.832;2023-01-29T06:24:17;100038.94;;;-2.80;88.96
42003;BME280;27693;50.506;30.832;2023-01-29T06:25:19;100045.45;;;-2.99;88.32
42003;BME280;27693;50.506;30.832;2023-01-29T06:26:22;100052.41;;;-2.89;88.46
42003;BME280;27693;50.506;30.832;2023-01-29T06:27:25;100049.23;;;-2.71;88.61
42003;BME280;27693;50.506;30.832;2023-01-29T06:28:27;100043.60;;;-2.47;88.50
42003;BME280;27693;50.506;30.832;2023-01-29T06:29:30;100047.23;;;-2.29;88.13
42003;BME280;27693;50.506;30.832;2023-01-29T06:30:33;100049.02;;;-2.22;87.80
42003;BME280;27693;50.506;30.832;2023-01-29T06:31:36;100053.30;;;-2.18;87.30
42003;BME280;27693;50.506;30.832;2023-01-29T06:32:40;100044.09;;;-2.06;87.26
42003;BME280;27693;50.506;30.832;2023-01-29T06:33:43;100050.16;;;-1.95;87.10
42003;BME280;27693;50.506;30.832;2023-01-29T06:34:45;100057.03;;;-1.88;86.96
42003;BME280;27693;50.506;30.832;2023-01-29T06:35:59;100051.63;;;-2.16;85.47
42003;BME280;27693;50.506;30.832;2023-01-29T06:37:01;100052.33;;;-2.29;85.55
42003;BME280;27693;50.506;30.832;2023-01-29T06:38:04;100054.82;;;-2.32;85.38
42003;BME280;27693;50.506;30.832;2023-01-29T06:39:06;100054.39;;;-2.66;85.12
42003;BME280;27693;50.506;30.832;2023-01-29T06:40:09;100054.39;;;-2.66;85.12
42003;BME280;27693;50.506;30.832;2023-01-29T06:41:16;100053.64;;;-2.59;85.57
42003;BME280;27693;50.506;30.832;2023-01-29T06:42:18;100051.98;;;-2.55;85.73
42003;BME280;27693;50.506;30.832;2023-01-29T06:43:22;100047.58;;;-2.67;85.93
42003;BME280;27693;50.506;30.832;2023-01-29T06:44:25;100047.58;;;-2.67;85.93
42003;BME280;27693;50.506;30.832;2023-01-29T06:45:27;100060.31;;;-2.67;85.88
42003;BME280;27693;50.506;30.832;2023-01-29T06:46:31;100053.45;;;-2.75;85.95
42003;BME280;27693;50.506;30.832;2023-01-29T06:47:33;100054.30;;;-2.74;85.82
42003;BME280;27693;50.506;30.832;2023-01-29T06:48:36;100056.61;;;-2.91;86.00
42003;BME280;27693;50.506;30.832;2023-01-29T06:49:38;100063.09;;;-3.12;86.24
42003;BME280;27693;50.506;30.832;2023-01-29T06:50:40;100057.89;;;-3.19;86.82
42003;BME280;27693;50.506;30.832;2023-01-29T06:51:42;100057.81;;;-3.24;87.21
42003;BME280;27693;50.506;30.832;2023-01-29T06:52:45;100053.59;;;-3.22;87.84
42003;BME280;27693;50.506;30.832;2023-01-29T06:53:48;100053.73;;;-3.13;88.27
42003;BME280;27693;50.506;30.832;2023-01-29T06:54:50;100058.00;;;-3.12;88.40
42003;BME280;27693;50.506;30.832;2023-01-29T06:55:55;100063.26;;;-3.01;88.72
42003;BME280;27693;50.506;30.832;2023-01-29T06:56:58;100058.56;;;-3.30;88.30
42003;BME280;27693;50.506;30.832;2023-01-29T06:58:10;100055.94;;;-3.34;88.57
42003;BME280;27693;50.506;30.832;2023-01-29T06:59:13;100055.58;;;-3.56;88.73
42003;BME280;27693;50.506;30.832;2023-01-29T07:00:16;100066.55;;;-3.60;89.45
42003;BME280;27693;50.506;30.832;2023-01-29T07:01:21;100056.44;;;-3.57;89.65
42003;BME280;27693;50.506;30.832;2023-01-29T07:02:25;100066.95;;;-3.35;89.98
42003;BME280;27693;50.506;30.832;2023-01-29T07:03:32;100062.17;;;-3.17;90.31
42003;BME280;27693;50.506;30.832;2023-01-29T07:04:34;100061.13;;;-3.28;89.63
42003;BME280;27693;50.506;30.832;2023-01-29T07:05:38;100067.04;;;-3.29;89.78
42003;BME280;27693;50.506;30.832;2023-01-29T07:06:41;100070.45;;;-3.30;89.80
42003;BME280;27693;50.506;30.832;2023-01-29T07:07:43;100062.55;;;-3.46;90.06
42003;BME280;27693;50.506;30.832;2023-01-29T07:08:49;100054.19;;;-3.39;90.41
42003;BME280;27693;50.506;30.832;2023-01-29T07:09:49;100053.36;;;-3.38;90.60
42003;BME280;27693;50.506;30.832;2023-01-29T07:10:58;100049.12;;;-3.37;90.43
42003;BME280;27693;50.506;30.832;2023-01-29T07:12:45;100053.27;;;-3.44;90.41
42003;BME280;27693;50.506;30.832;2023-01-29T07:13:50;100052.31;;;-3.49;91.01
42003;BME280;27693;50.506;30.832;2023-01-29T07:14:58;100052.31;;;-3.49;91.14
42003;BME280;27693;50.506;30.832;2023-01-29T07:16:36;100048.12;;;-3.47;91.56
42003;BME280;27693;50.506;30.832;2023-01-29T07:17:39;100051.63;;;-3.40;91.51
42003;BME280;27693;50.506;30.832;2023-01-29T07:18:41;100052.54;;;-3.37;91.44
42003;BME280;27693;50.506;30.832;2023-01-29T07:19:43;100053.77;;;-3.63;91.41
42003;BME280;27693;50.506;30.832;2023-01-29T07:20:48;100051.47;;;-3.49;91.85
42003;BME280;27693;50.506;30.832;2023-01-29T07:21:51;100051.56;;;-3.43;91.94
42003;BME280;27693;50.506;30.832;2023-01-29T07:22:56;100041.64;;;-3.28;91.94
42003;BME280;27693;50.506;30.832;2023-01-29T07:23:58;100045.27;;;-3.13;91.83
42003;BME280;27693;50.506;30.832;2023-01-29T07:25:01;100038.80;;;-2.90;91.77
42003;BME280;27693;50.506;30.832;2023-01-29T07:26:05;100042.92;;;-2.98;91.04
42003;BME280;27693;50.506;30.832;2023-01-29T07:27:08;100044.45;;;-3.11;90.88
42003;BME280;27693;50.506;30.832;2023-01-29T07:28:11;100046.25;;;-3.03;91.06
42003;BME280;27693;50.506;30.832;2023-01-29T07:29:14;100054.06;;;-2.91;90.97
42003;BME280;27693;50.506;30.832;2023-01-29T07:30:17;100053.48;;;-2.71;91.09
42003;BME280;27693;50.506;30.832;2023-01-29T07:31:20;100051.08;;;-2.61;90.79
42003;BME280;27693;50.506;30.832;2023-01-29T07:32:23;100047.63;;;-2.66;90.21
42003;BME280;27693;50.506;30.832;2023-01-29T07:33:26;100055.34;;;-2.60;90.05
42003;BME280;27693;50.506;30.832;2023-01-29T07:34:28;100055.28;;;-2.64;89.80
42003;BME280;27693;50.506;30.832;2023-01-29T07:35:31;100058.55;;;-2.75;89.65
42003;BME280;27693;50.506;30.832;2023-01-29T07:36:33;100059.08;;;-2.96;89.78
42003;BME280;27693;50.506;30.832;2023-01-29T07:37:38;100059.84;;;-3.01;90.12
42003;BME280;27693;50.506;30.832;2023-01-29T07:38:40;100058.16;;;-3.02;90.42
42003;BME280;27693;50.506;30.832;2023-01-29T07:39:43;100049.86;;;-2.89;90.62
42003;BME280;27693;50.506;30.832;2023-01-29T07:40:47;100055.05;;;-2.81;90.54
42003;BME280;27693;50.506;30.832;2023-01-29T07:41:51;100051.07;;;-2.62;90.65
42003;BME280;27693;50.506;30.832;2023-01-29T07:42:59;100045.14;;;-2.61;90.39
42003;BME280;27693;50.506;30.832;2023-01-29T07:44:02;100053.02;;;-2.43;90.44
42003;BME280;27693;50.506;30.832;2023-01-29T07:45:06;100052.27;;;-2.34;89.98
42003;BME280;27693;50.506;30.832;2023-01-29T07:46:10;100044.63;;;-2.32;89.78
42003;BME280;27693;50.506;30.832;2023-01-29T07:47:12;100044.48;;;-2.45;89.34
42003;BME280;27693;50.506;30.832;2023-01-29T07:48:17;100045.25;;;-2.50;89.57
42003;BME280;27693;50.506;30.832;2023-01-29T07:49:20;100040.00;;;-2.64;89.49
42003;BME280;27693;50.506;30.832;2023-01-29T07:50:24;100048.67;;;-2.50;90.14
42003;BME280;27693;50.506;30.832;2023-01-29T07:51:26;100043.60;;;-2.47;89.91
42003;BME280;27693;50.506;30.832;2023-01-29T07:52:30;100047.91;;;-2.43;89.84
42003;BME280;27693;50.506;30.832;2023-01-29T07:53:33;100041.78;;;-2.57;89.85
42003;BME280;27693;50.506;30.832;2023-01-29T07:54:36;100044.40;;;-2.52;90.25
42003;BME280;27693;50.506;30.832;2023-01-29T07:55:38;100042.53;;;-2.66;90.13
42003;BME280;27693;50.506;30.832;2023-01-29T07:56:40;100044.28;;;-2.60;90.23
42003;BME280;27693;50.506;30.832;2023-01-29T07:57:43;100041.88;;;-2.49;90.65
42003;BME280;27693;50.506;30.832;2023-01-29T07:58:45;100041.88;;;-2.49;90.65
42003;BME280;27693;50.506;30.832;2023-01-29T07:59:48;100038.43;;;-2.53;90.50
42003;BME280;27693;50.506;30.832;2023-01-29T08:00:50;100043.58;;;-2.50;90.51
42003;BME280;27693;50.506;30.832;2023-01-29T08:01:52;100045.24;;;-2.52;90.59
42003;BME280;27693;50.506;30.832;2023-01-29T08:03:03;100045.02;;;-2.69;90.71
42003;BME280;27693;50.506;30.832;2023-01-29T08:04:05;100040.73;;;-2.73;91.13
42003;BME280;27693;50.506;30.832;2023-01-29T08:05:08;100047.65;;;-2.63;91.66
42003;BME280;27693;50.506;30.832;2023-01-29T08:06:11;100044.40;;;-2.52;92.10
42003;BME280;27693;50.506;30.832;2023-01-29T08:07:14;100047.17;;;-2.32;92.68
42003;BME280;27693;50.506;30.832;2023-01-29T08:08:17;100035.44;;;-2.21;92.36
42003;BME280;27693;50.506;30.832;2023-01-29T08:09:21;100043.91;;;-2.22;91.94
42003;BME280;27693;50.506;30.832;2023-01-29T08:10:23;100051.30;;;-2.44;91.79
42003;BME280;27693;50.506;30.832;2023-01-29T08:11:25;100050.39;;;-2.49;91.96
42003;BME280;27693;50.506;30.832;2023-01-29T08:12:27;100046.88;;;-2.57;92.17
42003;BME280;27693;50.506;30.832;2023-01-29T08:13:30;100046.14;;;-2.48;92.65
42003;BME280;27693;50.506;30.832;2023-01-29T08:14:32;100047.09;;;-2.40;92.91
42003;BME280;27693;50.506;30.832;2023-01-29T08:15:34;100057.37;;;-2.32;92.88
42003;BME280;27693;50.506;30.832;2023-01-29T08:16:39;100055.83;;;-2.21;93.21
42003;BME280;27693;50.506;30.832;2023-01-29T08:17:42;100047.42;;;-2.11;93.07
42003;BME280;27693;50.506;30.832;2023-01-29T08:18:46;100055.24;;;-1.97;93.57
42003;BME280;27693;50.506;30.832;2023-01-29T08:19:49;100056.19;;;-1.87;93.34
42003;BME280;27693;50.506;30.832;2023-01-29T08:20:52;100053.53;;;-1.98;93.45
42003;BME280;27693;50.506;30.832;2023-01-29T08:21:54;100056.25;;;-1.82;93.83
42003;BME280;27693;50.506;30.832;2023-01-29T08:23:05;100054.42;;;-1.94;92.62
42003;BME280;27693;50.506;30.832;2023-01-29T08:24:08;100062.72;;;-2.11;92.92
42003;BME280;27693;50.506;30.832;2023-01-29T08:25:11;100059.22;;;-2.19;93.12
42003;BME280;27693;50.506;30.832;2023-01-29T08:26:14;100053.98;;;-2.31;93.40
42003;BME280;27693;50.506;30.832;2023-01-29T08:27:16;100050.69;;;-2.22;93.62
42003;BME280;27693;50.506;30.832;2023-01-29T08:28:19;100058.58;;;-2.02;94.41
42003;BME280;27693;50.506;30.832;2023-01-29T08:29:21;100050.09;;;-2.01;94.13
42003;BME280;27693;50.506;30.832;2023-01-29T08:30:26;100051.03;;;-1.93;94.20
42003;BME280;27693;50.506;30.832;2023-01-29T08:31:29;100055.19;;;-2.01;93.89
42003;BME280;27693;50.506;30.832;2023-01-29T08:32:31;100059.41;;;-2.03;94.16
42003;BME280;27693;50.506;30.832;2023-01-29T08:33:33;100058.38;;;-2.21;94.02
42003;BME280;27693;50.506;30.832;2023-01-29T08:34:38;100058.39;;;-2.18;94.57
42003;BME280;27693;50.506;30.832;2023-01-29T08:35:41;100058.50;;;-2.10;94.68
42003;BME280;27693;50.506;30.832;2023-01-29T08:36:43;100055.24;;;-1.97;94.83
42003;BME280;27693;50.506;30.832;2023-01-29T08:37:56;100063.90;;;-1.82;95.18
42003;BME280;27693;50.506;30.832;2023-01-29T08:39:00;100065.78;;;-1.63;95.57
42003;BME280;27693;50.506;30.832;2023-01-29T08:40:06;100062.51;;;-1.48;95.68
42003;BME280;27693;50.506;30.832;2023-01-29T08:41:10;100063.30;;;-1.55;95.72
42003;BME280;27693;50.506;30.832;2023-01-29T08:42:14;100063.23;;;-1.63;95.42
42003;BME280;27693;50.506;30.832;2023-01-29T08:43:16;100061.46;;;-1.70;94.86
42003;BME280;27693;50.506;30.832;2023-01-29T08:44:19;100065.52;;;-1.89;93.99
42003;BME280;27693;50.506;30.832;2023-01-29T08:45:21;100064.50;;;-2.05;94.28
42003;BME280;27693;50.506;30.832;2023-01-29T08:46:24;100059.75;;;-1.69;96.05
42003;BME280;27693;50.506;30.832;2023-01-29T08:47:27;100059.75;;;-1.69;95.50
42003;BME280;27693;50.506;30.832;2023-01-29T08:48:32;100062.19;;;-1.83;94.54
42003;BME280;27693;50.506;30.832;2023-01-29T08:49:36;100058.69;;;-1.91;94.84
42003;BME280;27693;50.506;30.832;2023-01-29T08:50:38;100055.32;;;-1.87;94.97
42003;BME280;27693;50.506;30.832;2023-01-29T08:51:40;100054.64;;;-1.72;95.18
42003;BME280;27693;50.506;30.832;2023-01-29T08:52:43;100058.88;;;-1.71;95.18
42003;BME280;27693;50.506;30.832;2023-01-29T08:53:46;100044.16;;;-2.00;94.82
42003;BME280;27693;50.506;30.832;2023-01-29T08:54:48;100055.97;;;-2.05;95.16
42003;BME280;27693;50.506;30.832;2023-01-29T08:55:51;100057.69;;;-2.06;95.38
42003;BME280;27693;50.506;30.832;2023-01-29T08:56:54;100057.69;;;-2.04;95.68
42003;BME280;27693;50.506;30.832;2023-01-29T08:57:56;100053.53;;;-1.96;95.82
42003;BME280;27693;50.506;30.832;2023-01-29T08:58:59;100046.73;;;-1.96;95.39